createdAt,value
2019-04-04T00:00:33.112Z,47.63
2019-04-04T00:02:58.916Z,47.23
2019-04-04T00:05:26.138Z,47.37
2019-04-04T00:07:52.080Z,49.13
2019-04-04T00:10:17.879Z,47.13
2019-04-04T00:12:43.660Z,44.70
2019-04-04T00:15:09.556Z,46.13
2019-04-04T00:17:35.332Z,47.60
2019-04-04T00:20:01.964Z,45.23
2019-04-04T00:22:27.720Z,46.03
2019-04-04T00:24:53.563Z,48.33
2019-04-04T00:27:19.289Z,44.77
2019-04-04T00:29:47.695Z,42.90
2019-04-04T00:32:12.784Z,42.57
2019-04-04T00:34:38.582Z,43.97
2019-04-04T00:37:04.864Z,45.90
2019-04-04T00:39:31.099Z,42.60
2019-04-04T00:41:56.878Z,45.40
2019-04-04T00:44:23.135Z,47.57
2019-04-04T00:46:49.487Z,46.63
2019-04-04T00:49:15.279Z,45.07
2019-04-04T00:51:41.074Z,45.10
2019-04-04T00:54:06.863Z,45.60
2019-04-04T00:56:32.666Z,46.50
2019-04-04T00:58:58.452Z,44.83
2019-04-04T01:01:26.887Z,46.57
2019-04-04T01:03:51.938Z,45.70
2019-04-04T01:06:17.721Z,45.97
2019-04-04T01:08:43.508Z,43.77
2019-04-04T01:11:09.304Z,45.90
2019-04-04T01:13:35.091Z,46.00
2019-04-04T01:16:02.504Z,47.13
2019-04-04T01:18:28.603Z,47.97
2019-04-04T01:20:54.398Z,49.47
2019-04-04T01:23:20.196Z,51.07
2019-04-04T01:25:45.997Z,50.30
2019-04-04T01:28:11.774Z,49.40
2019-04-04T01:30:37.555Z,49.47
2019-04-04T01:33:03.832Z,50.63
2019-04-04T01:35:29.767Z,50.33
2019-04-04T01:37:57.856Z,50.47
2019-04-04T01:40:23.265Z,50.27
2019-04-04T01:42:49.053Z,51.57
2019-04-04T01:45:14.838Z,51.27
2019-04-04T01:47:40.627Z,50.63
2019-04-04T01:50:06.532Z,51.93
2019-04-04T01:52:32.427Z,53.40
2019-04-04T01:54:58.211Z,51.70
2019-04-04T01:57:23.996Z,51.70
2019-04-04T01:59:49.770Z,49.73
2019-04-04T02:02:17.785Z,51.00
2019-04-04T02:04:43.252Z,46.70
2019-04-04T02:07:09.038Z,49.70
2019-04-04T02:09:34.810Z,47.63
2019-04-04T02:12:00.633Z,46.17
2019-04-04T02:14:26.411Z,43.87
2019-04-04T02:16:52.228Z,41.83
2019-04-04T02:19:18.324Z,45.13
2019-04-04T02:21:44.749Z,40.97
2019-04-04T02:24:11.113Z,39.80
2019-04-04T02:26:37.302Z,39.10
2019-04-04T02:29:03.426Z,39.87
2019-04-04T02:31:31.116Z,41.23
2019-04-04T02:33:56.925Z,41.70
2019-04-04T02:36:22.695Z,41.60
2019-04-04T02:39:07.886Z,40.20
2019-04-04T02:41:33.667Z,40.37
2019-04-04T02:44:00.694Z,39.70
2019-04-04T02:46:26.567Z,37.60
2019-04-04T02:48:55.850Z,38.73
2019-04-04T02:51:21.072Z,38.63
2019-04-04T02:53:46.877Z,39.17
2019-04-04T02:56:12.650Z,38.30
2019-04-04T02:58:38.467Z,40.07
2019-04-04T03:01:04.233Z,38.20
2019-04-04T03:03:30.129Z,38.17
2019-04-04T03:05:55.909Z,40.70
2019-04-04T03:08:21.728Z,38.33
2019-04-04T03:10:49.214Z,40.43
2019-04-04T03:13:15.176Z,36.97
2019-04-04T03:15:41.828Z,40.20
2019-04-04T03:18:08.647Z,38.17
2019-04-04T03:20:34.431Z,38.90
2019-04-04T03:23:01.362Z,36.27
2019-04-04T03:25:27.321Z,36.63
2019-04-04T03:27:53.121Z,36.40
2019-04-04T03:30:18.917Z,34.27
2019-04-04T03:32:51.808Z,33.23
2019-04-04T03:35:12.420Z,35.03
2019-04-04T03:37:41.021Z,35.27
2019-04-04T03:40:06.107Z,35.83
2019-04-04T03:42:31.897Z,37.93
2019-04-04T03:44:57.723Z,35.60
2019-04-04T03:47:23.537Z,31.00
2019-04-04T03:49:49.335Z,31.73
2019-04-04T03:52:15.110Z,33.17
2019-04-04T03:54:40.899Z,31.20
2019-04-04T03:57:10.938Z,32.90
2019-04-04T03:59:34.377Z,32.20
2019-04-04T04:02:00.171Z,30.47
2019-04-04T04:04:28.255Z,29.97
2019-04-04T04:06:53.692Z,31.83
2019-04-04T04:09:19.481Z,33.70
2019-04-04T04:11:45.305Z,32.47
2019-04-04T04:14:11.057Z,31.80
2019-04-04T04:16:36.847Z,34.17
2019-04-04T04:19:02.635Z,35.03
2019-04-04T04:21:28.425Z,32.77
2019-04-04T04:23:57.015Z,35.47
2019-04-04T04:26:21.898Z,35.53
2019-04-04T04:28:52.190Z,33.40
2019-04-04T04:31:15.625Z,37.40
2019-04-04T04:33:41.562Z,37.90
2019-04-04T04:36:09.779Z,38.73
2019-04-04T04:38:35.052Z,37.87
2019-04-04T04:41:00.846Z,36.87
2019-04-04T04:43:26.644Z,36.47
2019-04-04T04:45:52.429Z,38.30
2019-04-04T04:48:18.342Z,34.77
2019-04-04T04:50:44.235Z,36.30
2019-04-04T04:53:10.035Z,37.60
2019-04-04T04:55:36.127Z,32.73
2019-04-04T04:58:01.899Z,31.27
2019-04-04T05:00:28.193Z,37.13
2019-04-04T05:02:53.992Z,31.03
2019-04-04T05:05:19.789Z,30.30
2019-04-04T05:07:45.565Z,28.80
2019-04-04T05:10:14.653Z,30.07
2019-04-04T05:12:40.155Z,29.63
2019-04-04T05:15:06.066Z,30.33
2019-04-04T05:17:31.856Z,30.43
2019-04-04T05:19:57.649Z,31.70
2019-04-04T05:22:23.426Z,35.43
2019-04-04T05:25:06.786Z,32.40
2019-04-04T05:27:16.902Z,33.93
2019-04-04T05:29:44.635Z,32.60
2019-04-04T05:32:10.367Z,33.50
2019-04-04T05:34:36.172Z,31.77
2019-04-04T05:37:02.023Z,29.00
2019-04-04T05:39:28.209Z,29.77
2019-04-04T05:41:54.016Z,33.90
2019-04-04T05:44:19.781Z,34.10
2019-04-04T05:46:46.179Z,32.37
2019-04-04T05:49:11.995Z,29.07
2019-04-04T05:51:37.792Z,28.37
2019-04-04T05:54:06.987Z,29.70
2019-04-04T05:56:32.171Z,32.07
2019-04-04T05:58:59.347Z,31.47
2019-04-04T06:01:27.400Z,27.50
2019-04-04T06:03:54.628Z,28.73
2019-04-04T06:06:22.017Z,28.30
2019-04-04T06:08:47.907Z,29.37
2019-04-04T06:11:13.703Z,27.63
2019-04-04T06:13:39.492Z,29.07
2019-04-04T06:16:05.272Z,28.87
2019-04-04T06:18:31.067Z,24.93
2019-04-04T06:20:56.845Z,26.17
2019-04-04T06:23:23.083Z,26.37
2019-04-04T06:25:50.342Z,26.50
2019-04-04T06:28:16.127Z,27.47
2019-04-04T06:30:43.332Z,26.53
2019-04-04T06:33:09.599Z,26.03
2019-04-04T06:35:35.376Z,27.20
2019-04-04T06:38:01.231Z,24.37
2019-04-04T06:40:28.141Z,26.53
2019-04-04T06:42:54.681Z,25.37
2019-04-04T06:45:20.467Z,24.13
2019-04-04T06:47:46.248Z,24.63
2019-04-04T06:50:12.159Z,23.00
2019-04-04T06:52:37.955Z,24.80
2019-04-04T06:55:04.735Z,24.03
2019-04-04T06:57:30.516Z,25.67
2019-04-04T06:59:56.339Z,24.70
2019-04-04T07:02:23.985Z,24.67
2019-04-04T07:04:49.828Z,24.90
2019-04-04T07:07:15.605Z,23.13
2019-04-04T07:09:41.425Z,24.60
2019-04-04T07:12:07.347Z,22.57
2019-04-04T07:14:45.113Z,20.97
2019-04-04T07:17:00.922Z,21.77
2019-04-04T07:19:26.839Z,21.37
2019-04-04T07:21:52.618Z,20.43
2019-04-04T07:24:18.492Z,20.20
2019-04-04T07:26:45.532Z,19.83
2019-04-04T07:29:11.868Z,19.37
2019-04-04T07:31:38.392Z,18.77
2019-04-04T07:34:04.347Z,17.73
2019-04-04T07:36:30.124Z,16.70
2019-04-04T07:38:58.190Z,16.97
2019-04-04T07:41:24.115Z,14.10
2019-04-04T07:43:51.587Z,15.80
2019-04-04T07:46:17.601Z,15.63
2019-04-04T07:48:43.377Z,15.83
2019-04-04T07:51:09.177Z,15.30
2019-04-04T07:53:36.428Z,15.90
2019-04-04T07:56:02.702Z,14.60
2019-04-04T07:58:28.478Z,13.50
2019-04-04T08:00:54.305Z,13.07
2019-04-04T08:03:20.081Z,12.67
2019-04-04T08:05:45.879Z,12.53
2019-04-04T08:08:11.666Z,11.87
2019-04-04T08:10:37.452Z,12.03
2019-04-04T08:13:03.256Z,10.93
2019-04-04T08:15:29.155Z,11.50
2019-04-04T08:17:54.940Z,10.57
2019-04-04T08:20:20.748Z,10.87
2019-04-04T08:22:46.544Z,10.97
2019-04-04T08:25:12.353Z,10.73
2019-04-04T08:27:38.156Z,10.80
2019-04-04T08:30:05.534Z,11.40
2019-04-04T08:32:31.359Z,9.50
2019-04-04T08:34:57.127Z,9.50
2019-04-04T08:37:22.915Z,9.40
2019-04-04T08:39:48.712Z,10.43
2019-04-04T08:42:14.534Z,9.53
2019-04-04T08:44:40.536Z,8.97
2019-04-04T08:47:06.322Z,8.77
2019-04-04T08:49:32.107Z,9.20
2019-04-04T08:51:57.904Z,9.57
2019-04-04T08:54:23.697Z,8.63
2019-04-04T08:56:49.488Z,8.57
2019-04-04T08:59:15.266Z,9.30
2019-04-04T09:01:41.059Z,9.50
2019-04-04T09:04:06.862Z,8.60
2019-04-04T09:06:32.697Z,8.83
2019-04-04T09:08:58.563Z,8.93
2019-04-04T09:11:24.341Z,9.77
2019-04-04T09:13:50.133Z,9.53
2019-04-04T09:16:15.907Z,9.67
2019-04-04T09:18:41.694Z,10.07
2019-04-04T09:21:07.474Z,10.63
2019-04-04T09:23:33.271Z,11.03
2019-04-04T09:26:05.389Z,10.60
2019-04-04T09:28:26.880Z,10.53
2019-04-04T09:30:52.635Z,10.43
2019-04-04T09:33:20.931Z,10.97
2019-04-04T09:35:46.161Z,10.97
2019-04-04T09:38:11.973Z,11.37
2019-04-04T09:40:37.772Z,10.80
2019-04-04T09:43:03.566Z,10.57
2019-04-04T09:45:29.348Z,11.03
2019-04-04T09:47:55.136Z,10.87
2019-04-04T09:50:20.944Z,10.07
2019-04-04T09:52:46.728Z,10.97
2019-04-04T09:55:12.532Z,10.73
2019-04-04T09:57:38.439Z,10.10
2019-04-04T10:00:08.029Z,11.47
2019-04-04T10:02:33.798Z,10.07
2019-04-04T10:04:59.617Z,11.40
2019-04-04T10:07:26.805Z,11.70
2019-04-04T10:09:52.703Z,10.50
2019-04-04T10:12:18.599Z,10.83
2019-04-04T10:14:44.402Z,10.03
2019-04-04T10:17:10.181Z,10.50
2019-04-04T10:19:35.988Z,9.67
2019-04-04T10:22:01.775Z,10.83
2019-04-04T10:24:27.568Z,10.27
2019-04-04T10:26:53.352Z,10.63
2019-04-04T10:29:19.141Z,10.77
2019-04-04T10:31:44.928Z,10.63
2019-04-04T10:34:10.717Z,11.47
2019-04-04T10:36:36.515Z,11.17
2019-04-04T10:39:06.108Z,12.20
2019-04-04T10:41:32.001Z,12.30
2019-04-04T10:43:57.783Z,12.47
2019-04-04T10:46:23.583Z,12.27
2019-04-04T10:48:49.530Z,12.40
2019-04-04T10:51:15.592Z,12.23
2019-04-04T10:53:41.384Z,13.07
2019-04-04T10:56:07.398Z,13.77
2019-04-04T10:58:33.388Z,14.30
2019-04-04T11:01:02.014Z,13.73
2019-04-04T11:03:27.923Z,15.63
2019-04-04T11:05:54.065Z,16.80
2019-04-04T11:08:20.099Z,16.00
2019-04-04T11:10:45.947Z,18.07
2019-04-04T11:13:11.931Z,20.63
2019-04-04T11:15:37.826Z,19.07
2019-04-04T11:18:03.980Z,17.23
2019-04-04T11:20:29.983Z,16.13
2019-04-04T11:22:57.889Z,18.17
2019-04-04T11:25:26.408Z,17.77
2019-04-04T11:27:52.466Z,18.73
2019-04-04T11:30:18.993Z,19.43
2019-04-04T11:32:45.003Z,19.80
2019-04-04T11:35:11.153Z,19.57
2019-04-04T11:37:37.070Z,18.50
2019-04-04T11:40:03.636Z,21.20
2019-04-04T11:42:29.597Z,23.73
2019-04-04T11:44:55.368Z,25.73
2019-04-04T11:47:21.315Z,24.23
2019-04-04T11:49:47.690Z,25.17
2019-04-04T11:52:13.802Z,25.50
2019-04-04T11:54:50.596Z,24.40
2019-04-04T11:57:16.995Z,25.97
2019-04-04T11:59:43.255Z,27.17
2019-04-04T12:02:09.147Z,26.80
2019-04-04T12:04:35.284Z,30.03
2019-04-04T12:07:01.265Z,30.73
2019-04-04T12:09:27.353Z,29.63
2019-04-04T12:11:53.344Z,30.43
2019-04-04T12:14:19.470Z,27.20
2019-04-04T12:16:45.642Z,27.67
2019-04-04T12:19:11.717Z,27.00
2019-04-04T12:21:37.669Z,25.87
2019-04-04T12:24:03.635Z,26.00
2019-04-04T12:26:29.817Z,27.87
2019-04-04T12:28:56.674Z,26.07
2019-04-04T12:31:22.655Z,27.77
2019-04-04T12:33:49.030Z,28.80
2019-04-04T12:36:24.523Z,27.33
2019-04-04T12:38:42.777Z,28.53
2019-04-04T12:41:08.772Z,28.27
2019-04-04T12:43:34.766Z,26.33
2019-04-04T12:46:00.811Z,26.73
2019-04-04T12:48:26.785Z,27.93
2019-04-04T12:50:52.948Z,27.60
2019-04-04T12:53:21.327Z,29.73
2019-04-04T12:55:47.726Z,28.13
2019-04-04T12:58:14.000Z,28.60
2019-04-04T13:00:40.067Z,28.73
2019-04-04T13:03:06.044Z,28.43
2019-04-04T13:05:32.193Z,28.73
2019-04-04T13:07:58.373Z,28.43
2019-04-04T13:10:32.824Z,31.13
2019-04-04T13:12:52.288Z,29.83
2019-04-04T13:15:21.391Z,29.70
2019-04-04T13:17:47.356Z,29.03
2019-04-04T13:20:13.762Z,30.10
2019-04-04T13:22:39.954Z,31.13
2019-04-04T13:25:07.653Z,31.00
2019-04-04T13:27:33.565Z,29.40
2019-04-04T13:29:59.357Z,32.53
2019-04-04T13:32:25.550Z,31.47
2019-04-04T13:34:59.124Z,31.13
2019-04-04T13:37:19.633Z,31.50
2019-04-04T13:39:45.438Z,30.43
2019-04-04T13:42:11.592Z,31.03
2019-04-04T13:44:37.532Z,31.20
2019-04-04T13:47:03.895Z,32.63
2019-04-04T13:49:29.735Z,32.50
2019-04-04T13:51:55.576Z,32.53
2019-04-04T13:54:21.381Z,33.30
2019-04-04T13:56:47.605Z,31.60
2019-04-04T13:59:13.699Z,32.50
2019-04-04T14:01:42.005Z,33.17
2019-04-04T14:04:07.190Z,33.67
2019-04-04T14:06:33.016Z,32.97
2019-04-04T14:08:58.794Z,34.07
2019-04-04T14:11:24.607Z,34.37
2019-04-04T14:13:50.415Z,32.80
2019-04-04T14:16:16.320Z,33.70
2019-04-04T14:18:44.645Z,33.87
2019-04-04T14:21:10.746Z,34.87
2019-04-04T14:23:36.702Z,36.50
2019-04-04T14:26:02.776Z,36.23
2019-04-04T14:28:29.327Z,35.37
2019-04-04T14:30:55.267Z,35.83
2019-04-04T14:33:21.467Z,35.53
2019-04-04T14:35:47.472Z,34.70
2019-04-04T14:38:13.498Z,36.80
2019-04-04T14:40:39.516Z,36.07
2019-04-04T14:43:05.678Z,35.40
2019-04-04T14:45:31.902Z,34.63
2019-04-04T14:47:57.950Z,37.03
2019-04-04T14:50:23.851Z,37.37
2019-04-04T14:52:51.774Z,34.57
2019-04-04T14:55:17.968Z,36.43
2019-04-04T14:57:43.941Z,36.33
2019-04-04T15:00:11.963Z,36.00
2019-04-04T15:02:37.807Z,36.00
2019-04-04T15:05:04.648Z,38.87
2019-04-04T15:07:30.717Z,37.33
2019-04-04T15:09:56.634Z,36.47
2019-04-04T15:12:22.851Z,36.87
2019-04-04T15:14:48.907Z,37.63
2019-04-04T15:17:14.735Z,37.97
2019-04-04T15:19:40.557Z,38.87
2019-04-04T15:22:06.392Z,38.37
2019-04-04T15:24:32.270Z,38.40
2019-04-04T15:26:58.063Z,37.40
2019-04-04T15:29:23.917Z,39.10
2019-04-04T15:31:49.719Z,37.97
2019-04-04T15:34:15.532Z,38.20
2019-04-04T15:36:41.339Z,38.63
2019-04-04T15:39:07.246Z,37.80
2019-04-04T15:41:37.180Z,38.97
2019-04-04T15:44:01.363Z,38.37
2019-04-04T15:46:27.169Z,38.90
2019-04-04T15:48:52.972Z,41.10
2019-04-04T15:51:18.806Z,38.60
2019-04-04T15:53:44.617Z,39.63
2019-04-04T15:56:10.439Z,39.43
2019-04-04T15:58:36.348Z,38.37
2019-04-04T16:01:02.219Z,38.03
2019-04-04T16:03:28.155Z,36.27
2019-04-04T16:05:53.955Z,37.03
2019-04-04T16:08:19.790Z,39.33
2019-04-04T16:10:45.619Z,39.47
2019-04-04T16:13:11.405Z,41.23
2019-04-04T16:15:37.236Z,38.33
2019-04-04T16:18:03.786Z,39.00
2019-04-04T16:20:29.912Z,38.50
2019-04-04T16:22:56.079Z,38.80
2019-04-04T16:25:22.164Z,45.43
2019-04-04T16:27:48.243Z,45.40
2019-04-04T16:30:14.611Z,41.93
2019-04-04T16:32:40.913Z,40.93
2019-04-04T16:35:07.004Z,41.67
2019-04-04T16:37:33.158Z,40.33
2019-04-04T16:40:08.825Z,40.93
2019-04-04T16:42:27.320Z,41.53
2019-04-04T16:44:53.458Z,43.30
2019-04-04T16:47:19.545Z,41.73
2019-04-04T16:49:45.593Z,42.63
2019-04-04T16:52:11.651Z,41.63
2019-04-04T16:54:37.658Z,43.43
2019-04-04T16:57:04.819Z,42.77
2019-04-04T16:59:30.835Z,41.53
2019-04-04T17:01:56.769Z,44.27
2019-04-04T17:04:22.707Z,43.10
2019-04-04T17:06:48.790Z,43.83
2019-04-04T17:09:14.728Z,45.57
2019-04-04T17:11:40.769Z,43.40
2019-04-04T17:14:06.751Z,44.70
2019-04-04T17:16:32.824Z,46.57
2019-04-04T17:18:58.814Z,45.97
2019-04-04T17:21:24.833Z,44.40
2019-04-04T17:23:50.830Z,46.03
2019-04-04T17:26:16.869Z,46.13
2019-04-04T17:28:43.387Z,48.33
2019-04-04T17:31:10.214Z,46.40
2019-04-04T17:33:36.877Z,46.50
2019-04-04T17:36:03.045Z,49.80
2019-04-04T17:38:29.533Z,47.93
2019-04-04T17:40:55.610Z,45.37
2019-04-04T17:43:22.049Z,32.20
2019-04-04T17:45:48.407Z,24.67
2019-04-04T17:48:14.568Z,22.57
2019-04-04T17:50:40.567Z,20.80
2019-04-04T17:53:06.612Z,20.17
2019-04-04T17:55:32.543Z,18.67
2019-04-04T17:57:58.888Z,18.87
2019-04-04T18:00:26.100Z,18.33
2019-04-04T18:02:52.285Z,17.70
2019-04-04T18:05:18.581Z,22.07
2019-04-04T18:07:44.606Z,28.77
2019-04-04T18:10:10.684Z,19.40
2019-04-04T18:12:40.598Z,18.37
2019-04-04T18:15:05.961Z,17.77
2019-04-04T18:17:32.105Z,18.10
2019-04-04T18:19:58.276Z,17.70
2019-04-04T18:22:24.416Z,19.70
2019-04-04T18:24:50.334Z,18.83
2019-04-04T18:27:16.370Z,16.97
2019-04-04T18:29:42.261Z,18.80
2019-04-04T18:32:09.526Z,17.27
2019-04-04T18:34:35.920Z,19.80
2019-04-04T18:37:02.383Z,18.13
2019-04-04T18:39:28.363Z,17.57
2019-04-04T18:41:54.563Z,18.37
2019-04-04T18:44:20.557Z,18.97
2019-04-04T18:46:46.659Z,18.77
2019-04-04T18:49:12.731Z,18.83
2019-04-04T18:51:39.108Z,18.63
2019-04-04T18:54:05.244Z,20.50
2019-04-04T18:56:31.427Z,20.17
2019-04-04T18:58:57.489Z,20.23
2019-04-04T19:01:23.601Z,20.70
2019-04-04T19:03:49.621Z,22.07
2019-04-04T19:06:15.629Z,23.07
2019-04-04T19:08:41.952Z,25.77
2019-04-04T19:11:08.035Z,24.63
2019-04-04T19:13:43.707Z,24.40
2019-04-04T19:16:02.149Z,26.00
2019-04-04T19:18:28.488Z,26.30
2019-04-04T19:20:54.898Z,27.63
2019-04-04T19:23:21.223Z,28.97
2019-04-04T19:25:47.628Z,30.10
2019-04-04T19:28:14.097Z,31.07
2019-04-04T19:30:40.495Z,31.70
2019-04-04T19:33:06.452Z,31.17
2019-04-04T19:35:32.468Z,31.37
2019-04-04T19:38:00.380Z,33.17
2019-04-04T19:40:26.920Z,34.90
2019-04-04T19:42:52.790Z,34.33
2019-04-04T19:45:21.219Z,35.07
2019-04-04T19:47:46.559Z,37.20
2019-04-04T19:50:12.575Z,35.50
2019-04-04T19:52:38.503Z,35.93
2019-04-04T19:55:05.398Z,37.63
2019-04-04T19:57:31.207Z,36.50
2019-04-04T19:59:56.996Z,38.47
2019-04-04T20:02:23.109Z,40.07
2019-04-04T20:04:48.925Z,38.63
2019-04-04T20:07:14.823Z,39.90
2019-04-04T20:09:40.837Z,40.87
2019-04-04T20:12:06.622Z,40.50
2019-04-04T20:14:32.415Z,40.87
2019-04-04T20:16:58.222Z,40.53
2019-04-04T20:19:24.013Z,42.10
2019-04-04T20:21:49.795Z,43.07
2019-04-04T20:24:15.578Z,43.13
2019-04-04T20:26:41.374Z,44.23
2019-04-04T20:29:07.154Z,43.67
2019-04-04T20:31:32.975Z,43.50
2019-04-04T20:34:01.991Z,46.83
2019-04-04T20:36:26.495Z,47.17
2019-04-04T20:38:52.759Z,45.73
2019-04-04T20:41:18.565Z,45.87
2019-04-04T20:43:44.344Z,46.87
2019-04-04T20:46:10.135Z,46.87
2019-04-04T20:48:35.914Z,46.70
2019-04-04T20:51:01.699Z,48.73
2019-04-04T20:53:27.510Z,48.67
2019-04-04T20:55:53.334Z,50.07
2019-04-04T20:58:19.124Z,47.80
2019-04-04T21:00:44.911Z,49.33
2019-04-04T21:03:10.726Z,52.17
2019-04-04T21:05:36.538Z,49.27
2019-04-04T21:08:02.311Z,50.57
2019-04-04T21:10:28.145Z,48.93
2019-04-04T21:12:53.940Z,48.73
2019-04-04T21:15:19.739Z,51.20
2019-04-04T21:17:45.529Z,49.67
2019-04-04T21:20:11.417Z,51.30
2019-04-04T21:22:37.240Z,51.20
2019-04-04T21:25:04.622Z,51.70
2019-04-04T21:27:30.444Z,51.13
2019-04-04T21:29:56.214Z,50.00
2019-04-04T21:32:22.009Z,49.20
2019-04-04T21:34:47.827Z,49.30
2019-04-04T21:37:13.599Z,50.27
2019-04-04T21:39:39.409Z,50.43
2019-04-04T21:42:05.227Z,51.70
2019-04-04T21:44:31.073Z,54.97
2019-04-04T21:46:56.943Z,50.23
2019-04-04T21:49:22.702Z,49.93
2019-04-04T21:51:48.508Z,51.00
2019-04-04T21:54:14.308Z,53.73
2019-04-04T21:56:40.098Z,52.43
2019-04-04T21:59:05.874Z,53.20
2019-04-04T22:01:31.796Z,57.40
2019-04-04T22:03:57.871Z,56.80
2019-04-04T22:06:23.683Z,55.43
2019-04-04T22:08:49.466Z,56.93
2019-04-04T22:11:15.240Z,57.30
2019-04-04T22:13:41.059Z,57.57
2019-04-04T22:16:07.188Z,61.03
2019-04-04T22:18:33.569Z,59.40
2019-04-04T22:20:59.381Z,60.43
2019-04-04T22:23:25.171Z,59.27
2019-04-04T22:25:50.953Z,61.97
2019-04-04T22:28:16.752Z,59.77
2019-04-04T22:30:42.928Z,59.67
2019-04-04T22:33:08.743Z,62.73
2019-04-04T22:35:34.520Z,63.67
2019-04-04T22:38:00.309Z,62.67
2019-04-04T22:40:26.096Z,60.93
2019-04-04T22:42:51.884Z,60.87
2019-04-04T22:45:17.735Z,61.23
2019-04-04T22:47:43.554Z,58.93
2019-04-04T22:50:09.333Z,58.37
2019-04-04T22:52:35.140Z,55.33
2019-04-04T22:55:01.501Z,54.40
2019-04-04T22:57:27.672Z,60.03
2019-04-04T22:59:53.460Z,57.70
2019-04-04T23:02:19.263Z,61.43
2019-04-04T23:04:45.053Z,63.90
2019-04-04T23:07:10.841Z,65.93
2019-04-04T23:09:36.634Z,64.63
2019-04-04T23:12:02.412Z,64.67
2019-04-04T23:14:28.465Z,63.00
2019-04-04T23:16:54.274Z,65.70
2019-04-04T23:19:20.064Z,66.07
2019-04-04T23:21:45.848Z,65.20
2019-04-04T23:24:11.651Z,63.73
2019-04-04T23:26:37.450Z,66.53
2019-04-04T23:29:03.240Z,60.53
2019-04-04T23:31:29.019Z,58.37
2019-04-04T23:33:55.163Z,63.33
2019-04-04T23:36:20.980Z,66.53
2019-04-04T23:38:46.989Z,69.03
2019-04-04T23:41:12.902Z,67.80
2019-04-04T23:43:38.943Z,71.00
2019-04-04T23:46:04.972Z,66.37
2019-04-04T23:48:31.008Z,68.47
2019-04-04T23:50:57.078Z,72.47
2019-04-04T23:53:22.872Z,75.40
2019-04-04T23:55:48.662Z,72.83
2019-04-04T23:58:14.441Z,72.23
